CheckWX is a tool to help pilots better visualize weather data.  It is not intended as a substitute for an official pre-flight weather briefing.

06:53:18 UTC

KBAN METAR
Bridgeport (MCMWT)
Bridgeport, California, USA
Current

1 hour ago

KBAN 210552Z AUTO 21010G17KT 10SM CLR 11/M08 A2986 RMK AO2 SLP017 T01061078 10156 20094 58007 $
Observed
May-21 @ 05:52 UTC
Wind
  • 210° at 10 KTS
  • Gusting to 17 KTS
Visibility
10 SM
Flight Rules
VFR
Cloud Levels
  • Clear skies
Temperature
11°C / 52°F
Dewpoint
-8°C / 18°F
Humidity
26%
Altimeter
29.86" Hg
Pressure
1011.22 hPa
Previous

2 hours ago

KBAN 210452Z AUTO 21011G19KT 180V250 10SM OVC041 10/M06 A2988 RMK AO2 SLP045 T01001056 $
Observed
May-21 @ 04:52 UTC
Wind
  • 210° at 11 KTS
  • Gusting to 19 KTS
Visibility
10 SM
Flight Rules
VFR
Cloud Levels
  • Overcast at 4,100' AGL
Temperature
10°C / 50°F
Dewpoint
-6°C / 21°F
Humidity
32%
Altimeter
29.88" Hg
Pressure
1011.82 hPa
Previous

3 hours ago

KBAN 210352Z AUTO 21014G24KT 10SM BKN045 OVC050 11/M06 A2988 RMK AO2 SLP051 T01111061 $
Observed
May-21 @ 03:52 UTC
Wind
  • 210° at 14 KTS
  • Gusting to 24 KTS
Visibility
10 SM
Flight Rules
VFR
Cloud Levels
  • Broken at 4,500' AGL
  • Overcast at 5,000' AGL
Temperature
11°C / 52°F
Dewpoint
-6°C / 21°F
Humidity
30%
Altimeter
29.88" Hg
Pressure
1011.82 hPa